Flight Track Log - Related Links

Times and Time Zones

All times are in EDT time to prevent confusion due to time zone crossing. See the EJA364 flight status page for this flight to view local times or setup timezone preferences in your user account.

Time Position Orientation Groundspeed Altitude Reporting Facility
EDT Latitude Longitude Course Direction KTS MPH feet Rate Location/Type
Tue 12:34:27 PM 34.2139 -119.1075 264° West 161 185 900  Level Los Angeles Center
Tue 12:35:03 PM 34.2103 -119.1503 264° West 213 245 2,700 3,697 Climbing Los Angeles Center
Tue 12:36:06 PM 34.2017 -119.2283 262° West 257 296 7,000 3,264 Climbing Los Angeles Center
Tue 12:37:08 PM 34.1919 -119.3428 264° West 289 333 9,500 3,532 Climbing Los Angeles Center
Tue 12:38:10 PM 34.1908 -119.4378 269° West 283 326 14,300 3,677 Climbing Los Angeles Center
Tue 12:39:12 PM 34.2661 -119.4608 346° North 324 373 17,100 2,274 Climbing Los Angeles Center
Tue 12:40:14 PM 34.3039 -119.3494 68° East 357 411 19,000 1,920 Climbing Los Angeles Center
Tue 12:41:17 PM 34.3361 -119.2289 72° East 374 430 21,100 2,016 Climbing Los Angeles Center
Tue 12:42:19 PM 34.3678 -119.1028 73° East 387 445 23,200 2,177 Climbing Los Angeles Center
Tue 12:43:21 PM 34.4092 -118.9431 73° East 405 466 25,600 2,129 Climbing Los Angeles Center
Tue 12:44:23 PM 34.4453 -118.8028 73° East 423 487 27,600 1,935 Climbing Los Angeles Center
Tue 12:45:25 PM 34.4828 -118.6589 72° East 438 504 29,600 1,935 Climbing Los Angeles Center
Tue 12:46:27 PM 34.5197 -118.5142 73° East 445 512 31,600 1,645 Climbing Los Angeles Center
Tue 12:47:29 PM 34.5558 -118.3697 73° East 446 513 33,000 677 Climbing Los Angeles Center
Tue 12:48:31 PM 34.5956 -118.2131 73° East 471 542 33,000  Level Los Angeles Center
Tue 12:49:34 PM 34.6408 -118.0278 73° East 510 587 33,000 624 Level Los Angeles Center
Tue 12:50:36 PM 34.6772 -117.8619 75° East 515 593 34,300 1,824 Climbing Los Angeles Center
Tue 12:51:39 PM 34.7119 -117.7078 75° East 486 559 36,800 2,274 Climbing Los Angeles Center
Tue 12:52:40 PM 34.7503 -117.5333 75° East 455 524 39,000 1,073 Climbing Los Angeles Center
Tue 12:53:42 PM 34.7836 -117.3833 75° East 465 535 39,000  Level Los Angeles Center
Tue 12:54:44 PM 34.8189 -117.2272 75° East 484 557 39,000  Level Los Angeles Center
Tue 12:55:46 PM 34.8542 -117.0681 75° East 491 565 39,000  Level Los Angeles Center
Tue 12:56:48 PM 34.8894 -116.9064 75° East 493 567 39,000  Level Los Angeles Center
Tue 12:57:50 PM 34.9717 -116.7328 60° Northeast 505 581 39,000  Level Los Angeles Center
Tue 12:58:53 PM 35.0664 -116.6011 49° Northeast 516 594 39,000  Level Los Angeles Center
Tue 12:59:55 PM 35.1603 -116.4692 49° Northeast 518 596 39,000  Level Los Angeles Center
Tue 01:00:58 PM 35.2522 -116.3367 50° Northeast 514 592 39,000  Level Los Angeles Center
Tue 01:02:00 PM 35.3650 -116.1789 49° Northeast 515 593 39,000  Level Los Angeles Center
Tue 01:03:02 PM 35.4589 -116.0458 49° Northeast 516 594 39,000  Level Los Angeles Center
Tue 01:04:04 PM 35.5533 -115.9131 49° Northeast 518 596 39,000  Level Los Angeles Center
Tue 01:05:06 PM 35.6428 -115.7919 48° Northeast 513 590 39,000  Level Los Angeles Center
Tue 01:06:08 PM 35.7536 -115.6317 50° Northeast 512 589 39,000  Level Los Angeles Center
Tue 01:07:10 PM 35.8469 -115.4978 49° Northeast 516 594 39,000  Level Los Angeles Center
Tue 01:08:12 PM 35.9403 -115.3633 49° Northeast 519 597 39,000  Level Los Angeles Center
Tue 01:09:14 PM 36.0322 -115.2289 50° Northeast 519 597 39,000  Level Los Angeles Center
Tue 01:10:17 PM 36.1483 -115.0719 47° Northeast 517 595 39,000  Level Los Angeles Center
Tue 01:11:19 PM 36.2486 -114.9433 46° Northeast 523 602 39,000  Level Los Angeles Center
Tue 01:12:20 PM 36.3297 -114.8403 46° Northeast 524 603 39,000  Level Los Angeles Center
Tue 01:13:23 PM 36.4492 -114.6844 46° Northeast 522 601 39,000  Level Los Angeles Center
Tue 01:14:25 PM 36.5497 -114.5539 46° Northeast 522 601 39,000  Level Los Angeles Center
Tue 01:15:27 PM 36.6500 -114.4222 46° Northeast 525 604 39,000  Level Los Angeles Center
Tue 01:16:29 PM 36.7672 -114.2597 48° Northeast 526 605 39,000  Level Los Angeles Center
Tue 01:17:31 PM 36.8431 -114.1050 58° Northeast 520 598 39,000  Level Los Angeles Center
Tue 01:18:33 PM 36.9181 -113.9486 59° Northeast 524 603 39,000  Level Los Angeles Center
Tue 01:19:35 PM 36.9856 -113.8094 59° Northeast 524 603 39,000  Level Los Angeles Center
Tue 01:20:38 PM 37.0750 -113.6239 59° Northeast 520 598 39,000  Level Los Angeles Center
Tue 01:21:40 PM 37.1483 -113.4658 60° Northeast 524 603 39,000  Level Los Angeles Center
Tue 01:22:42 PM 37.2231 -113.3094 59° Northeast 525 604 39,000  Level Los Angeles Center
Tue 01:23:44 PM 37.2969 -113.1517 59° Northeast 525 604 39,000  Level Los Angeles Center
Tue 01:24:46 PM 37.3847 -112.9631 60° Northeast 526 605 39,000  Level Los Angeles Center
Tue 01:25:48 PM 37.4567 -112.8067 60° Northeast 529 609 39,000  Level Los Angeles Center
Tue 01:26:50 PM 37.5289 -112.6500 60° Northeast 532 612 39,000  Level Los Angeles Center
Tue 01:27:52 PM 37.6022 -112.4919 60° Northeast 531 611 39,000  Level Los Angeles Center
Tue 01:28:54 PM 37.6897 -112.3017 60° Northeast 527 606 39,000  Level Los Angeles Center
Tue 01:29:56 PM 37.7486 -112.1739 60° Northeast 528 608 39,000  Level Los Angeles Center
Tue 01:30:59 PM 37.8378 -111.9819 59° Northeast 529 609 39,000  Level Los Angeles Center
Tue 01:32:01 PM 37.9119 -111.8203 60° Northeast 530 610 39,000  Level Los Angeles Center
Tue 01:33:11 PM 37.9997 -111.6258 60° Northeast 532 612 39,000  Level Salt Lake Center
Tue 01:34:13 PM 38.0756 -111.4653 59° Northeast 532 612 39,000  Level Salt Lake Center
Tue 01:35:15 PM 38.1489 -111.3014 60° Northeast 535 616 39,000  Level Salt Lake Center
Tue 01:36:17 PM 38.2325 -111.1022 62° Northeast 534 615 39,000  Level Salt Lake Center
Tue 01:37:19 PM 38.3003 -110.9347 63° Northeast 534 615 39,000  Level Salt Lake Center
Tue 01:38:21 PM 38.3669 -110.7731 62° Northeast 534 615 39,000  Level Salt Lake Center
Tue 01:39:23 PM 38.4428 -110.5836 63° Northeast 536 617 39,000  Level Salt Lake Center
Tue 01:40:25 PM 38.5072 -110.4222 63° Northeast 535 616 39,000  Level Salt Lake Center
Tue 01:41:27 PM 38.5833 -110.2344 63° Northeast 534 615 39,000  Level Salt Lake Center
Tue 01:42:29 PM 38.6483 -110.0703 63° Northeast 537 618 39,000  Level Salt Lake Center
Tue 01:43:31 PM 38.7228 -109.8806 63° Northeast 536 617 39,000  Level Salt Lake Center
Tue 01:44:33 PM 38.7872 -109.7181 63° Northeast 535 616 39,000  Level Salt Lake Center
Tue 01:45:35 PM 38.8522 -109.5558 63° Northeast 535 616 39,000  Level Salt Lake Center
Tue 01:46:50 PM 38.9586 -109.3528 56° Northeast 531 611 39,000  Level Denver Center
Tue 01:47:52 PM 39.0506 -109.1747 56° Northeast 535 616 39,000  Level Denver Center
Tue 01:48:54 PM 39.1278 -109.0222 57° Northeast 532 612 39,000 -484 Level Denver Center
Tue 01:49:56 PM 39.2022 -108.8333 63° Northeast 534 615 38,000 -1,113 Descending Denver Center
Tue 01:50:58 PM 39.2600 -108.6728 65° Northeast 521 600 36,700 -1,694 Descending Denver Center
Tue 01:52:00 PM 39.3264 -108.4786 66° East 534 615 34,500 -1,839 Descending Denver Center
Tue 01:53:02 PM 39.3850 -108.3100 66° East 542 624 32,900 -1,597 Descending Denver Center
Tue 01:54:04 PM 39.4456 -108.1317 66° East 494 568 31,200 -1,536 Descending Denver Center
Tue 01:55:07 PM 39.5000 -107.9728 66° East 504 580 29,700 -1,728 Descending Denver Center
Tue 01:56:09 PM 39.5622 -107.7861 67° East 507 583 27,600 -1,452 Descending Denver Center
Tue 01:57:11 PM 39.6131 -107.6319 67° East 494 568 26,700 -1,016 Descending Denver Center
Tue 01:58:13 PM 39.6711 -107.4592 66° East 473 544 25,500 -1,500 Descending Denver Center
Tue 01:59:15 PM 39.7197 -107.3150 66° East 460 529 23,600 -2,371 Descending Denver Center
Tue 02:00:17 PM 39.7683 -107.1639 67° East 431 496 20,600 -3,097 Descending Denver Center
Tue 02:01:19 PM 39.7806 -107.0256 83° East 370 426 17,200 -3,532 Descending Denver Center
Tue 02:02:21 PM 39.7892 -106.9078 85° East 326 375 13,300 -2,565 Descending Denver Center
Tue 02:03:23 PM 39.7925 -106.8086 87° East 286 329 11,900 -1,065 Descending Denver Center
Tue 02:04:25 PM 39.7361 -106.7689 152° Southeast 245 282 11,100 -1,452 Descending Denver Center
Tue 02:05:27 PM 39.6669 -106.7964 197° South 211 243 8,900 -1,839 Descending Denver Center
Tue 02:06:29 PM 39.6492 -106.8472 246° West 174 200 7,300 -1,065 Descending Denver Center
Tue 02:07:31 PM 39.6447 -106.8914 263° West 145 167 6,700 -581 Descending Denver Center

Login

Don't have an account? Register now (free) for customized features, flight alerts, and more!